Time;durP1;ratioP1;P1;durP2;ratioP2;P2;SDS_P1;SDS_P2;PMS_P1;PMS_P2;Temp;Humidity;BMP_temperature;BMP_pressure;BME280_temperature;BME280_humidity;BME280_pressure;Samples;Min_cycle;Max_cycle;Signal;HPM_P1;HPM_P2
2022/02/22 00:00:10;;;;;;;;;;;8.10;99.90;8.60;100298.00;;;;341725;28;83543;-90
2022/02/22 00:00:22;;;;;;;;;;;8.10;99.90;8.60;100296.00;;;;340216;28;90492;-90
2022/02/22 00:00:34;;;;;;;;;;;8.10;99.90;8.60;100290.00;;;;339093;28;83402;-90
2022/02/22 00:00:46;;;;;;;;;;;8.10;99.90;8.60;100298.00;;;;338793;28;90325;-90
2022/02/22 00:00:59;;;;;;;;;;;8.10;99.90;8.60;100293.00;;;;337831;28;83537;-90
2022/02/22 00:01:11;;;;;;;;;;;8.10;99.90;8.60;100294.00;;;;339870;28;90506;-90
2022/02/22 00:01:23;;;;;;;;;;;8.10;99.90;8.60;100297.00;;;;337841;28;82660;-90
2022/02/22 00:01:35;;;;;;;;;;;8.10;99.90;8.60;100291.00;;;;341240;28;89800;-90
2022/02/22 00:01:46;;;;;;;;;;;8.20;99.90;8.60;100292.00;;;;339021;28;83476;-90
2022/02/22 00:01:58;;;;;;;;;;;8.10;99.90;8.60;100292.00;;;;340080;28;90826;-90
2022/02/22 00:02:10;;;;;;;;;;;8.10;99.90;8.70;100292.00;;;;340474;28;82534;-89
2022/02/22 00:02:22;;;;;;;;;;;8.20;99.90;8.70;100294.00;;;;340221;28;90380;-89
2022/02/22 00:02:34;;;;;;;;;;;8.20;99.90;8.60;100296.00;;;;341969;28;82434;-90
2022/02/22 00:02:47;;;;;;;;;;;8.10;99.90;8.60;100301.00;;;;338630;28;88772;-90
2022/02/22 00:02:59;;;;;;;;;;;8.20;99.90;8.60;100295.00;;;;340284;28;82677;-90
2022/02/22 00:03:11;;;;;;;;;;;8.20;99.90;8.70;100298.00;;;;341313;28;90275;-90
2022/02/22 00:03:24;;;;;;;;;;;8.20;99.90;8.60;100298.00;;;;340527;28;83456;-90
2022/02/22 00:03:36;;;;;;;;;;;8.20;99.90;8.60;100299.00;;;;340813;28;91307;-89
2022/02/22 00:03:48;;;;;;;;;;;8.20;99.90;8.60;100306.00;;;;340510;28;83426;-90
2022/02/22 00:03:59;;;;;;;;;;;8.20;99.90;8.60;100294.00;;;;338791;28;91644;-90
2022/02/22 00:04:11;;;;;;;;;;;8.20;99.90;8.70;100301.00;;;;339437;28;83407;-90
2022/02/22 00:04:26;;;;;;;;;;;8.10;99.90;8.60;100298.00;;;;340155;28;90175;-90
2022/02/22 00:04:38;;;;;;;;;;;8.20;99.90;8.60;100295.00;;;;340610;28;83340;-91
2022/02/22 00:04:50;;;;;;;;;;;8.20;99.90;8.60;100299.00;;;;340175;28;91095;-90
2022/02/22 00:05:03;;;;;;;;;;;8.20;99.90;8.70;100294.00;;;;337985;28;82540;-90
2022/02/22 00:05:15;;;;;;;;;;;8.20;99.90;8.60;100299.00;;;;338810;28;91423;-90
2022/02/22 00:05:27;;;;;;;;;;;8.20;99.90;8.60;100293.00;;;;341890;28;83384;-90
2022/02/22 00:05:39;;;;;;;;;;;8.20;99.90;8.60;100292.00;;;;338864;28;91362;-89
2022/02/22 00:05:50;;;;;;;;;;;8.20;99.90;8.70;100301.00;;;;338807;28;83544;-89
2022/02/22 00:06:03;;;;;;;;;;;8.20;99.90;8.60;100295.00;;;;340063;28;90582;-90
2022/02/22 00:06:15;;;;;;;;;;;8.20;99.90;8.60;100294.00;;;;341992;28;83378;-89
2022/02/22 00:06:26;;;;;;;;;;;8.20;99.90;8.70;100293.00;;;;340088;28;91317;-90
2022/02/22 00:06:38;;;;;;;;;;;8.20;99.90;8.70;100297.00;;;;339002;28;83386;-89
2022/02/22 00:06:50;;;;;;;;;;;8.10;99.90;8.60;100296.00;;;;340886;28;91058;-90
2022/02/22 00:07:03;;;;;;;;;;;8.20;99.90;8.60;100302.00;;;;341726;28;82548;-90
2022/02/22 00:07:15;;;;;;;;;;;8.10;99.90;8.60;100296.00;;;;341426;28;92120;-90
2022/02/22 00:07:27;;;;;;;;;;;8.20;99.90;8.60;100291.00;;;;340406;28;83508;-90
2022/02/22 00:07:39;;;;;;;;;;;8.20;99.90;8.60;100297.00;;;;338571;28;89451;-90
2022/02/22 00:07:51;;;;;;;;;;;8.10;99.90;8.60;100290.00;;;;339005;28;82507;-90
2022/02/22 00:08:03;;;;;;;;;;;8.20;99.90;8.60;100297.00;;;;342724;28;91250;-90
2022/02/22 00:08:15;;;;;;;;;;;8.10;99.90;8.60;100292.00;;;;339249;28;83452;-90
2022/02/22 00:08:27;;;;;;;;;;;8.10;99.90;8.50;100288.00;;;;339729;28;90611;-90
2022/02/22 00:08:39;;;;;;;;;;;8.10;99.90;8.60;100288.00;;;;341919;28;83499;-89
2022/02/22 00:08:51;;;;;;;;;;;8.10;99.90;8.60;100294.00;;;;341621;28;88990;-89
2022/02/22 00:09:03;;;;;;;;;;;8.10;99.90;8.60;100289.00;;;;340444;28;82365;-90
2022/02/22 00:09:15;;;;;;;;;;;8.10;99.90;8.60;100287.00;;;;338649;28;90249;-89
2022/02/22 00:09:26;;;;;;;;;;;8.10;99.90;8.50;100293.00;;;;340571;28;83189;-90
2022/02/22 00:09:38;;;;;;;;;;;8.10;99.90;8.50;100285.00;;;;339281;28;89361;-89
2022/02/22 00:09:50;;;;;;;;;;;8.10;99.90;8.60;100288.00;;;;340511;28;83256;-89
2022/02/22 00:10:03;;;;;;;;;;;8.10;99.90;8.60;100288.00;;;;339975;28;91593;-90
2022/02/22 00:10:15;;;;;;;;;;;8.10;99.90;8.60;100289.00;;;;338965;28;83465;-89
2022/02/22 00:10:27;;;;;;;;;;;8.10;99.90;8.60;100288.00;;;;337218;28;90986;-90
2022/02/22 00:10:39;;;;;;;;;;;8.10;99.90;8.60;100293.00;;;;339349;28;83342;-90
2022/02/22 00:10:51;;;;;;;;;;;8.10;99.90;8.60;100286.00;;;;340241;28;90151;-89
2022/02/22 00:11:03;;;;;;;;;;;8.10;99.90;8.60;100288.00;;;;343151;28;83395;-90
2022/02/22 00:11:15;;;;;;;;;;;8.10;99.90;8.50;100292.00;;;;338833;28;90411;-91
2022/02/22 00:11:27;;;;;;;;;;;8.10;99.90;8.50;100291.00;;;;340655;28;83320;-90
2022/02/22 00:11:39;;;;;;;;;;;8.10;99.90;8.50;100290.00;;;;341470;28;89869;-90
2022/02/22 00:11:51;;;;;;;;;;;8.10;99.90;8.50;100288.00;;;;339261;28;82537;-90
2022/02/22 00:12:03;;;;;;;;;;;8.10;99.90;8.50;100291.00;;;;340148;28;90590;-90
2022/02/22 00:12:16;;;;;;;;;;;8.10;99.90;8.50;100286.00;;;;339227;28;83426;-90
2022/02/22 00:12:28;;;;;;;;;;;8.10;99.90;8.60;100287.00;;;;339934;28;90540;-89
2022/02/22 00:12:40;;;;;;;;;;;8.10;99.90;8.60;100286.00;;;;341478;28;83423;-91
2022/02/22 00:12:51;;;;;;;;;;;8.10;99.90;8.60;100290.00;;;;337548;28;90379;-90
2022/02/22 00:13:03;;;;;;;;;;;8.10;99.90;8.60;100285.00;;;;339060;28;82673;-90
2022/02/22 00:13:15;;;;;;;;;;;8.10;99.90;8.50;100290.00;;;;339942;28;90419;-90
2022/02/22 00:13:28;;;;;;;;;;;8.10;99.90;8.50;100297.00;;;;339138;28;83544;-91
2022/02/22 00:13:40;;;;;;;;;;;8.10;99.90;8.50;100292.00;;;;341179;28;90717;-90
2022/02/22 00:13:52;;;;;;;;;;;8.10;99.90;8.60;100292.00;;;;340234;28;82497;-90
2022/02/22 00:14:04;;;;;;;;;;;8.10;99.90;8.60;100288.00;;;;341215;28;91053;-90
2022/02/22 00:14:16;;;;;;;;;;;8.10;99.90;8.60;100292.00;;;;340631;28;83177;-90
2022/02/22 00:14:28;;;;;;;;;;;8.10;99.90;8.60;100292.00;;;;340039;28;89464;-91
2022/02/22 00:14:40;;;;;;;;;;;8.10;99.90;8.60;100293.00;;;;339194;28;83380;-90
2022/02/22 00:14:51;;;;;;;;;;;8.10;99.90;8.50;100290.00;;;;342935;28;90552;-90
2022/02/22 00:15:04;;;;;;;;;;;8.00;99.90;8.50;100289.00;;;;341840;28;82500;-90
2022/02/22 00:15:15;;;;;;;;;;;8.10;99.90;8.50;100288.00;;;;341350;28;91591;-90
2022/02/22 00:15:28;;;;;;;;;;;8.10;99.90;8.60;100297.00;;;;340465;28;83613;-90
2022/02/22 00:15:39;;;;;;;;;;;8.00;99.90;8.60;100292.00;;;;339015;28;90864;-90
2022/02/22 00:15:52;;;;;;;;;;;8.10;99.90;8.50;100298.00;;;;340506;28;83326;-90
2022/02/22 00:16:05;;;;;;;;;;;8.10;99.90;8.50;100288.00;;;;338752;28;91283;-89
2022/02/22 00:16:17;;;;;;;;;;;8.10;99.90;8.50;100293.00;;;;340596;28;83386;-90
2022/02/22 00:16:29;;;;;;;;;;;8.10;99.90;8.50;100301.00;;;;338407;28;90463;-90
2022/02/22 00:16:41;;;;;;;;;;;8.10;99.90;8.50;100291.00;;;;339189;28;83329;-90
2022/02/22 00:16:55;;;;;;;;;;;8.10;99.90;8.50;100295.00;;;;341183;28;89863;-90
2022/02/22 00:17:07;;;;;;;;;;;8.10;99.90;8.50;100303.00;;;;340372;28;83501;-90
2022/02/22 00:17:18;;;;;;;;;;;8.00;99.90;8.50;100293.00;;;;338576;28;89985;-89
2022/02/22 00:17:33;;;;;;;;;;;8.10;99.90;8.50;100291.00;;;;339035;28;83605;-89
2022/02/22 00:17:45;;;;;;;;;;;8.10;99.90;8.50;100303.00;;;;339959;28;89566;-90
2022/02/22 00:17:57;;;;;;;;;;;8.10;99.90;8.60;100295.00;;;;337762;28;83569;-90
2022/02/22 00:18:08;;;;;;;;;;;8.10;99.90;8.60;100300.00;;;;336260;28;91615;-90
2022/02/22 00:18:20;;;;;;;;;;;8.10;99.90;8.50;100297.00;;;;340673;28;82620;-90
2022/02/22 00:18:33;;;;;;;;;;;8.10;99.90;8.50;100305.00;;;;341285;28;91327;-90
2022/02/22 00:18:44;;;;;;;;;;;8.00;99.90;8.50;100302.00;;;;340420;28;83643;-90
2022/02/22 00:18:56;;;;;;;;;;;8.10;99.90;8.60;100299.00;;;;338907;28;90345;-90
2022/02/22 00:19:08;;;;;;;;;;;8.10;99.90;8.60;100302.00;;;;340723;28;83341;-90
2022/02/22 00:19:20;;;;;;;;;;;8.10;99.90;8.50;100298.00;;;;340254;28;89785;-90
2022/02/22 00:19:32;;;;;;;;;;;8.10;99.90;8.60;100307.00;;;;338054;28;83370;-90
2022/02/22 00:19:43;;;;;;;;;;;8.10;99.90;8.50;100301.00;;;;339887;28;90641;-90
2022/02/22 00:19:55;;;;;;;;;;;8.10;99.90;8.50;100304.00;;;;340644;28;82394;-90
2022/02/22 00:20:09;;;;;;;;;;;8.10;99.90;8.50;100303.00;;;;338859;28;89416;-90
2022/02/22 00:20:20;;;;;;;;;;;8.10;99.90;8.50;100296.00;;;;340523;28;83384;-90
2022/02/22 00:20:32;;;;;;;;;;;8.10;99.90;8.50;100293.00;;;;340105;28;91185;-89
2022/02/22 00:20:45;;;;;;;;;;;8.10;99.90;8.50;100297.00;;;;339234;28;83487;-90
2022/02/22 00:20:57;;;;;;;;;;;8.10;99.90;8.50;100297.00;;;;340226;28;90613;-90
2022/02/22 00:21:08;;;;;;;;;;;8.10;99.90;8.50;100298.00;;;;337838;28;83516;-89
2022/02/22 00:21:20;;;;;;;;;;;8.10;99.90;8.50;100303.00;;;;337515;28;91474;-90
2022/02/22 00:21:32;;;;;;;;;;;8.10;99.90;8.50;100297.00;;;;339250;28;83355;-90
2022/02/22 00:21:44;;;;;;;;;;;8.10;99.90;8.50;100309.00;;;;339596;28;90097;-90
2022/02/22 00:21:56;;;;;;;;;;;8.10;99.90;8.50;100295.00;;;;339311;28;83460;-90
2022/02/22 00:22:07;;;;;;;;;;;8.10;99.90;8.50;100299.00;;;;338796;28;89940;-90
2022/02/22 00:22:20;;;;;;;;;;;8.10;99.90;8.50;100300.00;;;;336687;28;82320;-89
2022/02/22 00:22:31;;;;;;;;;;;8.10;99.90;8.50;100304.00;;;;340053;28;90297;-90
2022/02/22 00:22:43;;;;;;;;;;;8.00;99.90;8.50;100308.00;;;;341718;28;83437;-89
2022/02/22 00:22:55;;;;;;;;;;;8.00;99.90;8.50;100297.00;;;;341220;28;89723;-88
2022/02/22 00:23:07;;;;;;;;;;;8.00;99.90;8.50;100296.00;;;;340461;28;83388;-90
2022/02/22 00:23:20;;;;;;;;;;;8.10;99.90;8.50;100306.00;;;;339887;28;89887;-90
2022/02/22 00:23:32;;;;;;;;;;;8.10;99.90;8.50;100307.00;;;;337884;28;83560;-89
2022/02/22 00:23:45;;;;;;;;;;;8.00;99.90;8.50;100302.00;;;;341257;28;89047;-90
2022/02/22 00:23:56;;;;;;;;;;;8.00;99.90;8.60;100302.00;;;;341620;28;83688;-89
2022/02/22 00:24:08;;;;;;;;;;;8.00;99.90;8.50;100302.00;;;;338679;28;90105;-89
2022/02/22 00:24:20;;;;;;;;;;;8.10;99.90;8.50;100303.00;;;;341946;28;83222;-90
2022/02/22 00:24:32;;;;;;;;;;;8.00;99.90;8.50;100305.00;;;;342800;28;90389;-90
2022/02/22 00:24:44;;;;;;;;;;;8.10;99.90;8.60;100302.00;;;;343246;28;82539;-90
2022/02/22 00:24:56;;;;;;;;;;;8.10;99.90;8.50;100311.00;;;;342994;28;89383;-90
2022/02/22 00:25:12;;;;;;;;;;;8.10;99.90;8.50;100301.00;;;;340391;28;83258;-90
2022/02/22 00:25:24;;;;;;;;;;;8.10;99.90;8.50;100307.00;;;;338873;28;91487;-89
2022/02/22 00:25:36;;;;;;;;;;;8.00;99.90;8.50;100312.00;;;;340832;28;82382;-90
2022/02/22 00:25:48;;;;;;;;;;;8.00;99.90;8.50;100297.00;;;;338735;28;91284;-90
2022/02/22 00:26:00;;;;;;;;;;;8.10;99.90;8.50;100311.00;;;;342326;28;82447;-89
2022/02/22 00:26:12;;;;;;;;;;;8.00;99.90;8.50;100305.00;;;;341844;28;91491;-89
2022/02/22 00:26:23;;;;;;;;;;;8.10;99.90;8.60;100308.00;;;;338229;28;83232;-89
2022/02/22 00:26:35;;;;;;;;;;;8.00;99.90;8.60;100302.00;;;;341817;28;91089;-90
2022/02/22 00:26:47;;;;;;;;;;;8.00;99.90;8.60;100300.00;;;;339370;28;82356;-90
2022/02/22 00:26:59;;;;;;;;;;;8.00;99.90;8.60;100300.00;;;;340606;28;89498;-89
2022/02/22 00:27:11;;;;;;;;;;;8.00;99.90;8.60;100306.00;;;;340848;28;83439;-90
2022/02/22 00:27:23;;;;;;;;;;;8.10;99.90;8.50;100312.00;;;;341850;28;91172;-90
2022/02/22 00:27:35;;;;;;;;;;;8.10;99.90;8.50;100312.00;;;;340846;28;82509;-90
2022/02/22 00:27:46;;;;;;;;;;;8.10;99.90;8.50;100293.00;;;;338084;28;91266;-90
2022/02/22 00:27:58;;;;;;;;;;;8.10;99.90;8.50;100309.00;;;;340721;28;82834;-89
2022/02/22 00:28:10;;;;;;;;;;;8.10;99.90;8.50;100305.00;;;;341900;28;88923;-90
2022/02/22 00:28:22;;;;;;;;;;;8.00;99.90;8.50;100303.00;;;;343637;28;83255;-89
2022/02/22 00:28:36;;;;;;;;;;;8.10;99.90;8.50;100311.00;;;;340380;28;91416;-90
2022/02/22 00:28:48;;;;;;;;;;;8.10;99.90;8.50;100305.00;;;;338160;28;83210;-90
2022/02/22 00:28:59;;;;;;;;;;;8.00;99.90;8.50;100311.00;;;;339148;28;89654;-89
2022/02/22 00:29:12;;;;;;;;;;;8.00;99.90;8.50;100311.00;;;;339405;28;82609;-90
2022/02/22 00:29:24;;;;;;;;;;;8.10;99.90;8.50;100305.00;;;;341751;28;91106;-90
2022/02/22 00:29:36;;;;;;;;;;;8.10;99.90;8.50;100316.00;;;;340999;28;83280;-90
2022/02/22 00:29:47;;;;;;;;;;;8.00;99.90;8.50;100314.00;;;;339036;28;91101;-89
2022/02/22 00:29:59;;;;;;;;;;;8.10;99.90;8.50;100309.00;;;;339402;28;82700;-90
2022/02/22 00:30:11;;;;;;;;;;;8.00;99.90;8.50;100309.00;;;;341759;28;91567;-90
2022/02/22 00:30:23;;;;;;;;;;;8.00;99.90;8.50;100313.00;;;;339543;28;82459;-90
2022/02/22 00:30:35;;;;;;;;;;;8.00;99.90;8.60;100317.00;;;;340269;28;91806;-89
2022/02/22 00:30:48;;;;;;;;;;;8.00;99.90;8.50;100315.00;;;;342159;28;83427;-90
2022/02/22 00:30:59;;;;;;;;;;;8.10;99.90;8.50;100316.00;;;;341750;28;89715;-90
2022/02/22 00:31:11;;;;;;;;;;;8.00;99.90;8.50;100315.00;;;;340861;28;82433;-90
2022/02/22 00:31:23;;;;;;;;;;;8.00;99.90;8.60;100316.00;;;;339160;28;90923;-90
2022/02/22 00:31:35;;;;;;;;;;;8.00;99.90;8.60;100317.00;;;;340869;28;83336;-90
2022/02/22 00:31:47;;;;;;;;;;;8.10;99.90;8.60;100313.00;;;;338935;28;90852;-90
2022/02/22 00:31:59;;;;;;;;;;;8.10;99.90;8.60;100315.00;;;;339541;28;82415;-90
2022/02/22 00:32:10;;;;;;;;;;;8.10;99.90;8.60;100315.00;;;;340472;28;88808;-90
2022/02/22 00:32:22;;;;;;;;;;;8.10;99.90;8.60;100316.00;;;;339534;28;82448;-91
2022/02/22 00:32:34;;;;;;;;;;;8.10;99.90;8.60;100315.00;;;;341878;28;88071;-90
2022/02/22 00:32:46;;;;;;;;;;;8.10;99.90;8.60;100322.00;;;;340727;28;82461;-90
2022/02/22 00:32:58;;;;;;;;;;;8.10;99.90;8.60;100311.00;;;;343001;28;89526;-89
2022/02/22 00:33:10;;;;;;;;;;;8.10;99.90;8.50;100320.00;;;;340763;28;83491;-90
2022/02/22 00:33:22;;;;;;;;;;;8.10;99.90;8.60;100320.00;;;;341841;28;91802;-89
2022/02/22 00:33:34;;;;;;;;;;;8.00;99.90;8.50;100319.00;;;;340903;28;83247;-90
2022/02/22 00:33:46;;;;;;;;;;;8.10;99.90;8.60;100320.00;;;;340455;28;90305;-90
2022/02/22 00:33:58;;;;;;;;;;;8.10;99.90;8.60;100320.00;;;;338075;28;83474;-89
2022/02/22 00:34:10;;;;;;;;;;;8.10;99.90;8.60;100314.00;;;;341807;28;90506;-90
2022/02/22 00:34:21;;;;;;;;;;;8.10;99.90;8.60;100320.00;;;;336891;28;83135;-89
2022/02/22 00:34:33;;;;;;;;;;;8.10;99.90;8.60;100319.00;;;;337771;28;91787;-90
2022/02/22 00:34:45;;;;;;;;;;;8.10;99.90;8.60;100331.00;;;;339474;28;83443;-90
2022/02/22 00:34:57;;;;;;;;;;;8.10;99.90;8.60;100318.00;;;;339352;28;89517;-89
2022/02/22 00:35:09;;;;;;;;;;;8.10;99.90;8.70;100310.00;;;;339761;28;82497;-90
2022/02/22 00:35:21;;;;;;;;;;;8.10;99.90;8.70;100322.00;;;;338116;28;90450;-90
2022/02/22 00:35:33;;;;;;;;;;;8.10;99.90;8.60;100313.00;;;;341404;28;81749;-90
2022/02/22 00:35:45;;;;;;;;;;;8.10;99.90;8.60;100318.00;;;;340305;28;50357;-89
2022/02/22 00:35:57;;;;;;;;;;;8.10;99.90;8.60;100314.00;;;;338896;28;62284;-89
2022/02/22 00:36:09;;;;;;;;;;;8.10;99.90;8.70;100312.00;;;;335357;29;90041;-89
2022/02/22 00:36:21;;;;;;;;;;;8.10;99.90;8.60;100312.00;;;;338266;28;83407;-89
2022/02/22 00:36:34;;;;;;;;;;;8.10;99.90;8.60;100312.00;;;;337885;28;90226;-89
2022/02/22 00:36:45;;;;;;;;;;;8.10;99.90;8.60;100317.00;;;;342276;28;83572;-89
2022/02/22 00:36:57;;;;;;;;;;;8.10;99.90;8.60;100318.00;;;;337978;28;86970;-89
2022/02/22 00:37:09;;;;;;;;;;;8.10;99.90;8.60;100313.00;;;;336963;28;82467;-90
2022/02/22 00:37:21;;;;;;;;;;;8.10;99.90;8.60;100314.00;;;;339279;28;91619;-90
2022/02/22 00:37:33;;;;;;;;;;;8.10;99.90;8.60;100325.00;;;;338462;28;82542;-90
2022/02/22 00:37:45;;;;;;;;;;;8.20;99.90;8.60;100321.00;;;;339313;28;90892;-90
2022/02/22 00:37:57;;;;;;;;;;;8.10;99.90;8.70;100315.00;;;;345164;28;82540;-89
2022/02/22 00:38:09;;;;;;;;;;;8.10;99.90;8.60;100331.00;;;;339493;28;90184;-90
2022/02/22 00:38:21;;;;;;;;;;;8.10;99.90;8.70;100320.00;;;;342494;28;83376;-89
2022/02/22 00:38:33;;;;;;;;;;;8.10;99.90;8.70;100317.00;;;;340806;28;92309;-90
2022/02/22 00:38:49;;;;;;;;;;;8.20;99.90;8.70;100322.00;;;;341107;28;83243;-89
2022/02/22 00:39:04;;;;;;;;;;;8.10;99.90;8.60;100319.00;;;;342098;28;89653;-91
2022/02/22 00:39:15;;;;;;;;;;;8.20;99.90;8.60;100324.00;;;;339729;28;83307;-90
2022/02/22 00:39:27;;;;;;;;;;;8.20;99.90;8.60;100315.00;;;;337817;28;91382;-91
2022/02/22 00:39:39;;;;;;;;;;;8.20;99.90;8.60;100321.00;;;;341944;28;82635;-89
2022/02/22 00:39:51;;;;;;;;;;;8.20;99.90;8.60;100318.00;;;;340344;28;90453;-90
2022/02/22 00:40:04;;;;;;;;;;;8.20;99.90;8.60;100320.00;;;;342248;28;83537;-90
2022/02/22 00:40:16;;;;;;;;;;;8.10;99.90;8.70;100324.00;;;;341999;28;90410;-90
2022/02/22 00:40:27;;;;;;;;;;;8.20;99.90;8.70;100314.00;;;;342389;28;83505;-89
2022/02/22 00:40:39;;;;;;;;;;;8.20;99.90;8.70;100317.00;;;;342922;28;90396;-90
2022/02/22 00:40:51;;;;;;;;;;;8.10;99.90;8.70;100319.00;;;;342080;28;83333;-90
2022/02/22 00:41:03;;;;;;;;;;;8.20;99.90;8.70;100321.00;;;;340389;28;90435;-89
2022/02/22 00:41:16;;;;;;;;;;;8.20;99.90;8.70;100322.00;;;;341986;28;83563;-90
2022/02/22 00:41:28;;;;;;;;;;;8.20;99.90;8.70;100306.00;;;;341757;28;91189;-90
2022/02/22 00:41:40;;;;;;;;;;;8.20;99.90;8.70;100315.00;;;;340884;28;82466;-90
2022/02/22 00:41:52;;;;;;;;;;;8.20;99.90;8.70;100308.00;;;;340319;28;91187;-90
2022/02/22 00:42:04;;;;;;;;;;;8.20;99.90;8.70;100312.00;;;;340755;28;83288;-90
2022/02/22 00:42:15;;;;;;;;;;;8.20;99.90;8.70;100317.00;;;;343147;28;90323;-90
2022/02/22 00:42:27;;;;;;;;;;;8.20;99.90;8.80;100316.00;;;;340619;28;83456;-90
2022/02/22 00:42:39;;;;;;;;;;;8.20;99.90;8.80;100308.00;;;;340152;28;91601;-90
2022/02/22 00:42:51;;;;;;;;;;;8.20;99.90;8.80;100311.00;;;;341083;28;82391;-90
2022/02/22 00:43:03;;;;;;;;;;;8.20;99.90;8.80;100313.00;;;;340398;28;87470;-90
2022/02/22 00:43:15;;;;;;;;;;;8.20;99.90;8.80;100311.00;;;;339541;28;83407;-90
2022/02/22 00:43:27;;;;;;;;;;;8.20;99.90;8.80;100311.00;;;;339010;28;91530;-90
2022/02/22 00:43:39;;;;;;;;;;;8.30;99.90;8.80;100321.00;;;;338198;28;83255;-90
2022/02/22 00:43:51;;;;;;;;;;;8.30;99.90;8.70;100321.00;;;;341730;28;90129;-90
2022/02/22 00:44:03;;;;;;;;;;;8.20;99.90;8.70;100317.00;;;;342173;28;83429;-90
2022/02/22 00:44:15;;;;;;;;;;;8.30;99.90;8.70;100316.00;;;;340322;28;91306;-90
2022/02/22 00:44:28;;;;;;;;;;;8.20;99.90;8.70;100317.00;;;;337937;28;83254;-90
2022/02/22 00:44:40;;;;;;;;;;;8.20;99.90;8.80;100313.00;;;;337674;28;89335;-90
2022/02/22 00:44:52;;;;;;;;;;;8.30;99.90;8.80;100313.00;;;;338135;28;83426;-90
2022/02/22 00:45:05;;;;;;;;;;;8.20;99.90;8.70;100314.00;;;;337504;28;90777;-90
2022/02/22 00:45:16;;;;;;;;;;;8.20;99.90;8.70;100316.00;;;;339404;28;82608;-89
2022/02/22 00:45:28;;;;;;;;;;;8.30;99.90;8.70;100318.00;;;;339158;28;90342;-91
2022/02/22 00:45:40;;;;;;;;;;;8.20;99.90;8.70;100316.00;;;;338918;28;83583;-90
2022/02/22 00:45:52;;;;;;;;;;;8.30;99.90;8.70;100319.00;;;;338787;28;87718;-89
2022/02/22 00:46:04;;;;;;;;;;;8.20;99.90;8.70;100326.00;;;;340788;28;82506;-89
2022/02/22 00:46:16;;;;;;;;;;;8.20;99.90;8.70;100322.00;;;;340302;28;90484;-90
2022/02/22 00:46:27;;;;;;;;;;;8.20;99.90;8.70;100333.00;;;;340580;28;83526;-90
2022/02/22 00:46:39;;;;;;;;;;;8.30;99.90;8.70;100334.00;;;;340311;28;91530;-89
2022/02/22 00:46:51;;;;;;;;;;;8.20;99.90;8.70;100321.00;;;;339545;28;82425;-90
2022/02/22 00:47:03;;;;;;;;;;;8.20;99.90;8.70;100318.00;;;;337728;28;89634;-90
2022/02/22 00:47:15;;;;;;;;;;;8.20;99.90;8.70;100315.00;;;;339444;28;83439;-90
2022/02/22 00:47:27;;;;;;;;;;;8.20;99.90;8.70;100315.00;;;;336414;28;92023;-90
2022/02/22 00:47:39;;;;;;;;;;;8.20;99.90;8.70;100320.00;;;;336779;28;83460;-89
2022/02/22 00:47:51;;;;;;;;;;;8.20;99.90;8.80;100313.00;;;;336953;28;90903;-90
2022/02/22 00:48:02;;;;;;;;;;;8.20;99.90;8.80;100315.00;;;;341453;28;82178;-91
2022/02/22 00:48:14;;;;;;;;;;;8.30;99.90;8.80;100313.00;;;;336298;28;89904;-90
2022/02/22 00:48:26;;;;;;;;;;;8.30;99.90;8.80;100317.00;;;;342214;28;22200;-89
2022/02/22 00:48:38;;;;;;;;;;;8.20;99.90;8.80;100315.00;;;;344344;28;12999;-90
2022/02/22 00:48:50;;;;;;;;;;;8.30;99.90;8.70;100321.00;;;;342689;28;11812;-90
2022/02/22 00:49:01;;;;;;;;;;;8.30;99.90;8.80;100311.00;;;;338993;28;89514;-90
2022/02/22 00:49:14;;;;;;;;;;;8.30;99.90;8.70;100320.00;;;;339329;28;83353;-89
2022/02/22 00:49:25;;;;;;;;;;;8.30;99.90;8.70;100319.00;;;;339113;28;90440;-90
2022/02/22 00:49:37;;;;;;;;;;;8.30;99.90;8.70;100316.00;;;;339461;28;83335;-89
2022/02/22 00:49:49;;;;;;;;;;;8.30;99.90;8.70;100323.00;;;;340343;28;89830;-90
2022/02/22 00:50:01;;;;;;;;;;;8.30;99.90;8.70;100325.00;;;;340689;28;83375;-89
2022/02/22 00:50:15;;;;;;;;;;;8.20;99.90;8.70;100321.00;;;;341674;28;92008;-90
2022/02/22 00:50:28;;;;;;;;;;;8.20;99.90;8.70;100325.00;;;;340782;28;83157;-90
2022/02/22 00:50:40;;;;;;;;;;;8.20;99.90;8.70;100319.00;;;;340367;28;91569;-89
2022/02/22 00:50:52;;;;;;;;;;;8.30;99.90;8.70;100319.00;;;;340653;28;83285;-89
2022/02/22 00:51:04;;;;;;;;;;;8.20;99.90;8.70;100323.00;;;;339075;28;90836;-90
2022/02/22 00:51:16;;;;;;;;;;;8.20;99.90;8.70;100332.00;;;;338102;28;82563;-90
2022/02/22 00:51:28;;;;;;;;;;;8.20;99.90;8.70;100321.00;;;;339031;28;91202;-90
2022/02/22 00:51:40;;;;;;;;;;;8.30;99.90;8.70;100319.00;;;;339154;28;83543;-90
2022/02/22 00:51:51;;;;;;;;;;;8.30;99.90;8.70;100321.00;;;;340239;28;90341;-89
2022/02/22 00:52:04;;;;;;;;;;;8.30;99.90;8.70;100321.00;;;;339402;28;83574;-90
2022/02/22 00:52:15;;;;;;;;;;;8.30;99.90;8.70;100326.00;;;;337600;28;92244;-90
2022/02/22 00:52:28;;;;;;;;;;;8.30;99.90;8.70;100321.00;;;;342067;28;82582;-90
2022/02/22 00:52:40;;;;;;;;;;;8.20;99.90;8.70;100321.00;;;;341750;28;90136;-90
2022/02/22 00:52:52;;;;;;;;;;;8.20;99.90;8.80;100319.00;;;;342116;28;83244;-89
2022/02/22 00:53:04;;;;;;;;;;;8.30;99.90;8.70;100322.00;;;;337847;28;89786;-89
2022/02/22 00:53:16;;;;;;;;;;;8.20;99.90;8.80;100318.00;;;;340728;28;83205;-90
2022/02/22 00:53:27;;;;;;;;;;;8.30;99.90;8.80;100320.00;;;;340469;28;88804;-90
2022/02/22 00:53:39;;;;;;;;;;;8.30;99.90;8.80;100313.00;;;;340742;28;83273;-90
2022/02/22 00:53:51;;;;;;;;;;;8.20;99.90;8.80;100326.00;;;;340352;28;90456;-89
2022/02/22 00:54:03;;;;;;;;;;;8.20;99.90;8.80;100321.00;;;;342047;28;83436;-89
2022/02/22 00:54:15;;;;;;;;;;;8.20;99.90;8.80;100324.00;;;;340354;28;90388;-90
2022/02/22 00:54:27;;;;;;;;;;;8.30;99.90;8.80;100323.00;;;;342098;28;82460;-89
2022/02/22 00:54:38;;;;;;;;;;;8.30;99.90;8.80;100326.00;;;;338132;28;91336;-90
2022/02/22 00:54:51;;;;;;;;;;;8.30;99.90;8.80;100326.00;;;;339416;28;83291;-90
2022/02/22 00:55:04;;;;;;;;;;;8.30;99.90;8.80;100314.00;;;;338958;28;90835;-90
2022/02/22 00:55:15;;;;;;;;;;;8.30;99.90;8.80;100322.00;;;;339333;28;83556;-90
2022/02/22 00:55:27;;;;;;;;;;;8.30;99.90;8.80;100321.00;;;;340219;28;91797;-89
2022/02/22 00:55:39;;;;;;;;;;;8.30;99.90;8.80;100323.00;;;;340970;28;83319;-89
2022/02/22 00:55:51;;;;;;;;;;;8.30;99.90;8.80;100324.00;;;;342909;28;91110;-91
2022/02/22 00:56:03;;;;;;;;;;;8.30;99.90;8.80;100326.00;;;;340724;28;83427;-90
2022/02/22 00:56:15;;;;;;;;;;;8.30;99.90;8.70;100326.00;;;;340421;28;89743;-90
2022/02/22 00:56:27;;;;;;;;;;;8.30;99.90;8.70;100322.00;;;;339388;28;83257;-89
2022/02/22 00:56:39;;;;;;;;;;;8.30;99.90;8.80;100316.00;;;;338829;28;91805;-90
2022/02/22 00:56:51;;;;;;;;;;;8.30;99.90;8.70;100317.00;;;;338052;28;83512;-90
2022/02/22 00:57:03;;;;;;;;;;;8.30;99.90;8.70;100321.00;;;;341750;28;89631;-89
2022/02/22 00:57:15;;;;;;;;;;;8.30;99.90;8.70;100314.00;;;;342101;28;83445;-89
2022/02/22 00:57:27;;;;;;;;;;;8.30;99.90;8.70;100316.00;;;;338961;28;91295;-90
2022/02/22 00:57:41;;;;;;;;;;;8.30;99.90;8.70;100321.00;;;;340655;28;82645;-90
2022/02/22 00:57:53;;;;;;;;;;;8.30;99.90;8.70;100330.00;;;;340562;28;90533;-90
2022/02/22 00:58:06;;;;;;;;;;;8.30;99.90;8.70;100330.00;;;;338128;28;82414;-90
2022/02/22 00:58:17;;;;;;;;;;;8.30;99.90;8.70;100326.00;;;;338777;28;90937;-90
2022/02/22 00:58:29;;;;;;;;;;;8.30;99.90;8.70;100321.00;;;;340532;28;83471;-89
2022/02/22 00:58:41;;;;;;;;;;;8.30;99.90;8.70;100321.00;;;;341696;28;90487;-90
2022/02/22 00:58:53;;;;;;;;;;;8.20;99.90;8.70;100332.00;;;;343480;28;83423;-90
2022/02/22 00:59:04;;;;;;;;;;;8.30;99.90;8.70;100318.00;;;;340366;28;90863;-89
2022/02/22 00:59:16;;;;;;;;;;;8.30;99.90;8.70;100325.00;;;;342077;28;83497;-89
2022/02/22 00:59:28;;;;;;;;;;;8.30;99.90;8.70;100319.00;;;;340283;28;90072;-89
2022/02/22 00:59:40;;;;;;;;;;;8.30;99.90;8.70;100336.00;;;;344761;28;83416;-90
2022/02/22 00:59:51;;;;;;;;;;;8.30;99.90;8.70;100326.00;;;;340256;28;91470;-90
2022/02/22 01:00:04;;;;;;;;;;;8.30;99.90;8.80;100324.00;;;;339576;28;82405;-90
2022/02/22 01:00:16;;;;;;;;;;;8.20;99.90;8.80;100334.00;;;;339035;28;91330;-90
2022/02/22 01:00:28;;;;;;;;;;;8.30;99.90;8.80;100320.00;;;;341974;28;83346;-89